sensor_id;sensor_type;location;lat;lon;timestamp;pressure;altitude;pressure_sealevel;temperature;humidity
22257;BME280;11297;42.686;23.374;2023-02-16T00:00:44;96263.28;;;4.71;57.82
22257;BME280;11297;42.686;23.374;2023-02-16T00:03:15;96263.41;;;4.65;57.77
22257;BME280;11297;42.686;23.374;2023-02-16T00:05:41;96260.50;;;4.61;57.86
22257;BME280;11297;42.686;23.374;2023-02-16T00:08:06;96262.69;;;4.53;58.21
22257;BME280;11297;42.686;23.374;2023-02-16T00:10:33;96248.00;;;4.37;57.96
22257;BME280;11297;42.686;23.374;2023-02-16T00:13:00;96251.56;;;4.36;58.46
22257;BME280;11297;42.686;23.374;2023-02-16T00:15:44;96252.81;;;4.33;57.91
22257;BME280;11297;42.686;23.374;2023-02-16T00:18:18;96255.94;;;4.35;58.48
22257;BME280;11297;42.686;23.374;2023-02-16T00:20:44;96250.56;;;4.37;58.68
22257;BME280;11297;42.686;23.374;2023-02-16T00:23:09;96243.41;;;4.39;58.27
22257;BME280;11297;42.686;23.374;2023-02-16T00:25:35;96242.63;;;4.38;58.56
22257;BME280;11297;42.686;23.374;2023-02-16T00:28:09;96255.16;;;4.35;58.45
22257;BME280;11297;42.686;23.374;2023-02-16T00:30:37;96249.22;;;4.34;58.26
22257;BME280;11297;42.686;23.374;2023-02-16T00:33:12;96251.25;;;4.32;58.22
22257;BME280;11297;42.686;23.374;2023-02-16T00:35:38;96231.97;;;4.19;57.85
22257;BME280;11297;42.686;23.374;2023-02-16T00:38:03;96247.81;;;4.27;59.15
22257;BME280;11297;42.686;23.374;2023-02-16T00:40:29;96237.00;;;4.14;58.79
22257;BME280;11297;42.686;23.374;2023-02-16T00:42:54;96244.03;;;4.18;58.81
22257;BME280;11297;42.686;23.374;2023-02-16T00:45:20;96252.97;;;4.16;59.24
22257;BME280;11297;42.686;23.374;2023-02-16T00:47:48;96232.72;;;4.03;59.17
22257;BME280;11297;42.686;23.374;2023-02-16T00:50:21;96240.50;;;4.08;59.22
22257;BME280;11297;42.686;23.374;2023-02-16T00:52:47;96248.53;;;4.11;59.47
22257;BME280;11297;42.686;23.374;2023-02-16T00:55:20;96250.88;;;4.13;59.56
22257;BME280;11297;42.686;23.374;2023-02-16T00:57:54;96250.41;;;4.16;59.31
22257;BME280;11297;42.686;23.374;2023-02-16T01:00:29;96241.38;;;4.13;59.22
22257;BME280;11297;42.686;23.374;2023-02-16T01:02:58;96240.59;;;4.13;59.01
22257;BME280;11297;42.686;23.374;2023-02-16T01:05:24;96243.81;;;4.20;59.21
22257;BME280;11297;42.686;23.374;2023-02-16T01:07:50;96238.22;;;4.23;59.05
22257;BME280;11297;42.686;23.374;2023-02-16T01:10:35;96234.94;;;4.27;59.07
22257;BME280;11297;42.686;23.374;2023-02-16T01:13:21;96232.94;;;4.29;58.75
22257;BME280;11297;42.686;23.374;2023-02-16T01:15:47;96218.09;;;4.20;59.04
22257;BME280;11297;42.686;23.374;2023-02-16T01:18:14;96232.34;;;4.38;58.66
22257;BME280;11297;42.686;23.374;2023-02-16T01:20:40;96230.09;;;4.42;58.45
22257;BME280;11297;42.686;23.374;2023-02-16T01:23:05;96225.72;;;4.42;58.31
22257;BME280;11297;42.686;23.374;2023-02-16T01:25:31;96225.16;;;4.40;58.08
22257;BME280;11297;42.686;23.374;2023-02-16T01:27:56;96208.78;;;4.30;58.16
22257;BME280;11297;42.686;23.374;2023-02-16T01:30:23;96219.38;;;4.33;57.93
22257;BME280;11297;42.686;23.374;2023-02-16T01:32:49;96218.28;;;4.29;57.92
22257;BME280;11297;42.686;23.374;2023-02-16T01:35:22;96210.69;;;4.23;58.77
22257;BME280;11297;42.686;23.374;2023-02-16T01:37:48;96198.16;;;4.10;58.97
22257;BME280;11297;42.686;23.374;2023-02-16T01:40:27;96206.41;;;4.12;59.03
22257;BME280;11297;42.686;23.374;2023-02-16T01:43:28;96205.72;;;4.17;59.04
22257;BME280;11297;42.686;23.374;2023-02-16T01:46:00;96195.81;;;4.09;59.28
22257;BME280;11297;42.686;23.374;2023-02-16T01:48:28;96199.22;;;4.14;59.46
22257;BME280;11297;42.686;23.374;2023-02-16T01:53:52;96202.59;;;4.15;59.28
22257;BME280;11297;42.686;23.374;2023-02-16T01:56:34;96207.06;;;4.19;58.71
22257;BME280;11297;42.686;23.374;2023-02-16T01:59:10;96198.06;;;4.22;58.43
22257;BME280;11297;42.686;23.374;2023-02-16T02:01:49;96203.91;;;4.17;58.90
22257;BME280;11297;42.686;23.374;2023-02-16T02:04:26;96192.84;;;4.17;58.53
22257;BME280;11297;42.686;23.374;2023-02-16T02:07:21;96201.91;;;4.19;58.53
22257;BME280;11297;42.686;23.374;2023-02-16T02:10:27;96191.22;;;4.11;58.71
22257;BME280;11297;42.686;23.374;2023-02-16T02:15:37;96206.88;;;3.98;59.00
22257;BME280;11297;42.686;23.374;2023-02-16T02:18:03;96206.03;;;3.92;58.72
22257;BME280;11297;42.686;23.374;2023-02-16T02:45:16;96193.59;;;3.73;58.08
22257;BME280;11297;42.686;23.374;2023-02-16T02:47:46;96198.81;;;3.78;57.75
22257;BME280;11297;42.686;23.374;2023-02-16T02:50:31;96195.78;;;3.81;57.63
22257;BME280;11297;42.686;23.374;2023-02-16T02:53:01;96191.41;;;3.81;57.63
22257;BME280;11297;42.686;23.374;2023-02-16T02:55:28;96168.56;;;3.69;57.56
22257;BME280;11297;42.686;23.374;2023-02-16T02:58:14;96200.91;;;3.81;58.04
22257;BME280;11297;42.686;23.374;2023-02-16T03:00:58;96203.72;;;3.79;58.77
22257;BME280;11297;42.686;23.374;2023-02-16T03:03:33;96207.50;;;3.77;58.75
22257;BME280;11297;42.686;23.374;2023-02-16T03:08:33;96192.25;;;3.71;58.90
22257;BME280;11297;42.686;23.374;2023-02-16T03:11:07;96194.66;;;3.77;59.01
22257;BME280;11297;42.686;23.374;2023-02-16T03:14:11;96199.50;;;3.74;59.20
22257;BME280;11297;42.686;23.374;2023-02-16T03:16:44;96205.53;;;3.68;59.56
22257;BME280;11297;42.686;23.374;2023-02-16T03:19:11;96201.63;;;3.65;58.92
22257;BME280;11297;42.686;23.374;2023-02-16T03:21:57;96210.34;;;3.64;59.17
22257;BME280;11297;42.686;23.374;2023-02-16T03:24:42;96199.72;;;3.61;58.71
22257;BME280;11297;42.686;23.374;2023-02-16T03:27:30;96200.53;;;3.61;59.25
22257;BME280;11297;42.686;23.374;2023-02-16T03:30:16;96190.72;;;3.58;58.92
22257;BME280;11297;42.686;23.374;2023-02-16T03:32:43;96191.50;;;3.47;59.22
22257;BME280;11297;42.686;23.374;2023-02-16T03:35:09;96186.41;;;3.36;60.05
22257;BME280;11297;42.686;23.374;2023-02-16T03:37:40;96200.22;;;3.35;60.43
22257;BME280;11297;42.686;23.374;2023-02-16T03:40:09;96185.97;;;3.28;60.28
22257;BME280;11297;42.686;23.374;2023-02-16T03:42:59;96197.78;;;3.29;59.92
22257;BME280;11297;42.686;23.374;2023-02-16T03:45:25;96190.41;;;3.21;59.97
22257;BME280;11297;42.686;23.374;2023-02-16T03:47:50;96192.53;;;3.24;59.28
22257;BME280;11297;42.686;23.374;2023-02-16T03:50:16;96195.00;;;3.30;58.91
22257;BME280;11297;42.686;23.374;2023-02-16T03:52:42;96203.78;;;3.34;58.33
22257;BME280;11297;42.686;23.374;2023-02-16T03:55:07;96202.56;;;3.36;57.85
22257;BME280;11297;42.686;23.374;2023-02-16T03:57:33;96200.91;;;3.42;57.45
22257;BME280;11297;42.686;23.374;2023-02-16T03:59:58;96199.66;;;3.44;57.96
22257;BME280;11297;42.686;23.374;2023-02-16T04:02:26;96198.66;;;3.45;57.92
22257;BME280;11297;42.686;23.374;2023-02-16T04:04:51;96181.50;;;3.34;58.15
22257;BME280;11297;42.686;23.374;2023-02-16T04:07:17;96197.13;;;3.33;58.37
22257;BME280;11297;42.686;23.374;2023-02-16T04:09:42;96192.53;;;3.24;58.13
22257;BME280;11297;42.686;23.374;2023-02-16T04:12:10;96185.28;;;3.21;58.75
22257;BME280;11297;42.686;23.374;2023-02-16T04:14:54;96182.06;;;3.14;58.91
22257;BME280;11297;42.686;23.374;2023-02-16T04:17:19;96178.59;;;3.20;59.31
22257;BME280;11297;42.686;23.374;2023-02-16T04:19:45;96183.50;;;3.21;59.70
22257;BME280;11297;42.686;23.374;2023-02-16T04:22:10;96186.19;;;3.26;59.09
22257;BME280;11297;42.686;23.374;2023-02-16T04:24:36;96176.47;;;3.28;58.14
22257;BME280;11297;42.686;23.374;2023-02-16T04:27:01;96180.72;;;3.23;57.81
22257;BME280;11297;42.686;23.374;2023-02-16T04:29:26;96188.28;;;3.18;57.70
22257;BME280;11297;42.686;23.374;2023-02-16T04:31:53;96186.63;;;3.12;58.07
22257;BME280;11297;42.686;23.374;2023-02-16T04:34:18;96175.81;;;2.98;57.99
22257;BME280;11297;42.686;23.374;2023-02-16T04:36:44;96189.97;;;2.89;58.33
22257;BME280;11297;42.686;23.374;2023-02-16T04:39:09;96186.84;;;2.87;58.41
22257;BME280;11297;42.686;23.374;2023-02-16T04:41:35;96186.09;;;2.87;57.81
22257;BME280;11297;42.686;23.374;2023-02-16T04:44:00;96186.09;;;2.87;57.39
22257;BME280;11297;42.686;23.374;2023-02-16T04:46:25;96194.00;;;2.85;57.22
22257;BME280;11297;42.686;23.374;2023-02-16T04:48:51;96187.75;;;2.93;57.04
22257;BME280;11297;42.686;23.374;2023-02-16T04:51:16;96191.88;;;2.94;57.11
22257;BME280;11297;42.686;23.374;2023-02-16T04:53:42;96188.66;;;2.87;57.56
22257;BME280;11297;42.686;23.374;2023-02-16T04:56:11;96190.78;;;2.90;57.95
22257;BME280;11297;42.686;23.374;2023-02-16T04:58:37;96201.69;;;2.97;57.84
22257;BME280;11297;42.686;23.374;2023-02-16T05:01:03;96198.34;;;2.96;58.05
22257;BME280;11297;42.686;23.374;2023-02-16T05:03:28;96205.81;;;2.98;58.24
22257;BME280;11297;42.686;23.374;2023-02-16T05:05:53;96202.69;;;3.30;64.23
22257;BME280;11297;42.686;23.374;2023-02-16T05:08:19;96192.75;;;3.22;60.26
22257;BME280;11297;42.686;23.374;2023-02-16T05:10:44;96203.81;;;3.23;58.93
22257;BME280;11297;42.686;23.374;2023-02-16T05:13:30;96204.94;;;3.15;58.38
22257;BME280;11297;42.686;23.374;2023-02-16T05:16:13;96209.63;;;3.07;59.46
22257;BME280;11297;42.686;23.374;2023-02-16T05:18:39;96203.94;;;2.93;59.81
22257;BME280;11297;42.686;23.374;2023-02-16T05:21:04;96209.63;;;2.84;60.28
22257;BME280;11297;42.686;23.374;2023-02-16T05:23:48;96210.28;;;2.80;60.82
22257;BME280;11297;42.686;23.374;2023-02-16T05:26:14;96201.38;;;3.05;70.49
22257;BME280;11297;42.686;23.374;2023-02-16T05:28:39;96216.78;;;3.05;64.61
22257;BME280;11297;42.686;23.374;2023-02-16T05:31:05;96212.63;;;3.04;62.20
22257;BME280;11297;42.686;23.374;2023-02-16T05:33:30;96212.72;;;3.09;60.89
22257;BME280;11297;42.686;23.374;2023-02-16T05:35:55;96215.66;;;3.12;60.43
22257;BME280;11297;42.686;23.374;2023-02-16T05:38:21;96219.66;;;3.31;59.87
22257;BME280;11297;42.686;23.374;2023-02-16T05:40:46;96223.44;;;3.40;59.51
22257;BME280;11297;42.686;23.374;2023-02-16T05:43:12;96223.44;;;3.51;58.58
22257;BME280;11297;42.686;23.374;2023-02-16T05:45:37;96222.31;;;3.59;58.51
22257;BME280;11297;42.686;23.374;2023-02-16T05:48:03;96220.50;;;3.71;57.96
22257;BME280;11297;42.686;23.374;2023-02-16T05:50:28;96219.00;;;3.86;58.61
22257;BME280;11297;42.686;23.374;2023-02-16T05:52:54;96220.19;;;3.95;58.07
22257;BME280;11297;42.686;23.374;2023-02-16T05:55:19;96221.84;;;4.01;57.46
22257;BME280;11297;42.686;23.374;2023-02-16T05:57:44;96213.78;;;4.09;57.42
22257;BME280;11297;42.686;23.374;2023-02-16T06:00:10;96227.09;;;4.33;57.29
22257;BME280;11297;42.686;23.374;2023-02-16T06:02:36;96218.00;;;4.42;57.41
22257;BME280;11297;42.686;23.374;2023-02-16T06:05:01;96227.38;;;4.65;57.02
22257;BME280;11297;42.686;23.374;2023-02-16T06:07:27;96225.75;;;4.75;57.03
22257;BME280;11297;42.686;23.374;2023-02-16T06:09:52;96234.66;;;4.84;55.92
22257;BME280;11297;42.686;23.374;2023-02-16T06:12:17;96229.75;;;4.99;54.99
22257;BME280;11297;42.686;23.374;2023-02-16T06:14:43;96224.44;;;5.05;55.58
22257;BME280;11297;42.686;23.374;2023-02-16T06:17:08;96236.75;;;5.03;54.41
22257;BME280;11297;42.686;23.374;2023-02-16T06:19:33;96247.22;;;4.97;54.38
22257;BME280;11297;42.686;23.374;2023-02-16T06:21:59;96250.19;;;4.89;53.94
22257;BME280;11297;42.686;23.374;2023-02-16T06:24:24;96244.47;;;4.87;53.93
22257;BME280;11297;42.686;23.374;2023-02-16T06:26:50;96251.13;;;4.99;53.06
22257;BME280;11297;42.686;23.374;2023-02-16T06:29:15;96253.94;;;4.98;53.09
22257;BME280;11297;42.686;23.374;2023-02-16T06:31:40;96258.22;;;5.09;52.32
22257;BME280;11297;42.686;23.374;2023-02-16T06:34:06;96257.91;;;4.89;52.60
22257;BME280;11297;42.686;23.374;2023-02-16T06:36:32;96261.25;;;5.06;52.05
22257;BME280;11297;42.686;23.374;2023-02-16T06:38:58;96262.50;;;5.20;51.24
22257;BME280;11297;42.686;23.374;2023-02-16T06:41:23;96260.16;;;5.34;51.17
22257;BME280;11297;42.686;23.374;2023-02-16T06:44:07;96265.97;;;5.63;51.40
22257;BME280;11297;42.686;23.374;2023-02-16T06:46:33;96264.53;;;5.71;51.50
22257;BME280;11297;42.686;23.374;2023-02-16T06:48:59;96261.94;;;5.88;51.21
22257;BME280;11297;42.686;23.374;2023-02-16T06:51:25;96260.50;;;6.18;50.64
22257;BME280;11297;42.686;23.374;2023-02-16T06:53:50;96269.25;;;6.38;49.87
22257;BME280;11297;42.686;23.374;2023-02-16T06:56:16;96251.94;;;6.60;49.22
22257;BME280;11297;42.686;23.374;2023-02-16T06:58:41;96269.31;;;6.96;48.23
22257;BME280;11297;42.686;23.374;2023-02-16T07:01:07;96267.03;;;7.04;47.94
22257;BME280;11297;42.686;23.374;2023-02-16T07:03:32;96254.56;;;7.22;46.74
22257;BME280;11297;42.686;23.374;2023-02-16T07:05:59;96258.53;;;7.76;45.78
22257;BME280;11297;42.686;23.374;2023-02-16T07:08:25;96266.63;;;7.99;45.00
22257;BME280;11297;42.686;23.374;2023-02-16T07:10:52;96252.25;;;8.13;44.84
22257;BME280;11297;42.686;23.374;2023-02-16T07:13:18;96257.81;;;8.51;44.22
22257;BME280;11297;42.686;23.374;2023-02-16T07:15:44;96248.78;;;8.73;43.68
22257;BME280;11297;42.686;23.374;2023-02-16T07:18:09;96241.31;;;8.97;43.37
22257;BME280;11297;42.686;23.374;2023-02-16T07:20:35;96240.25;;;9.07;42.55
22257;BME280;11297;42.686;23.374;2023-02-16T07:23:01;96237.69;;;9.17;43.28
22257;BME280;11297;42.686;23.374;2023-02-16T07:25:27;96234.84;;;9.29;43.06
22257;BME280;11297;42.686;23.374;2023-02-16T07:27:52;96231.69;;;9.27;42.96
22257;BME280;11297;42.686;23.374;2023-02-16T07:30:19;96230.88;;;9.71;42.66
22257;BME280;11297;42.686;23.374;2023-02-16T07:32:45;96231.06;;;9.99;42.15
22257;BME280;11297;42.686;23.374;2023-02-16T07:35:11;96221.88;;;10.26;41.53
22257;BME280;11297;42.686;23.374;2023-02-16T07:37:37;96228.91;;;10.69;41.09
22257;BME280;11297;42.686;23.374;2023-02-16T07:40:03;96225.44;;;11.16;40.20
22257;BME280;11297;42.686;23.374;2023-02-16T07:42:30;96215.84;;;11.12;39.94
22257;BME280;11297;42.686;23.374;2023-02-16T07:44:56;96220.09;;;11.03;40.15
22257;BME280;11297;42.686;23.374;2023-02-16T07:47:21;96213.06;;;11.32;39.50
22257;BME280;11297;42.686;23.374;2023-02-16T07:49:46;96220.75;;;11.75;38.31
22257;BME280;11297;42.686;23.374;2023-02-16T07:52:12;96215.94;;;12.10;37.74
22257;BME280;11297;42.686;23.374;2023-02-16T07:54:37;96226.13;;;12.48;37.22
22257;BME280;11297;42.686;23.374;2023-02-16T07:57:03;96227.44;;;12.87;36.81
22257;BME280;11297;42.686;23.374;2023-02-16T07:59:28;96212.19;;;12.76;37.45
22257;BME280;11297;42.686;23.374;2023-02-16T08:01:53;96224.59;;;13.02;36.62
22257;BME280;11297;42.686;23.374;2023-02-16T08:04:19;96224.75;;;12.92;37.01
22257;BME280;11297;42.686;23.374;2023-02-16T08:06:44;96229.59;;;12.98;36.88
22257;BME280;11297;42.686;23.374;2023-02-16T08:09:13;96229.59;;;12.98;37.18
22257;BME280;11297;42.686;23.374;2023-02-16T08:11:38;96232.97;;;12.81;37.43
22257;BME280;11297;42.686;23.374;2023-02-16T08:14:04;96233.97;;;12.66;38.04
22257;BME280;11297;42.686;23.374;2023-02-16T08:16:29;96233.03;;;12.57;38.16
22257;BME280;11297;42.686;23.374;2023-02-16T08:18:55;96232.41;;;12.65;38.25
22257;BME280;11297;42.686;23.374;2023-02-16T08:21:24;96236.66;;;13.30;37.46
22257;BME280;11297;42.686;23.374;2023-02-16T08:23:55;96224.75;;;13.42;36.94
22257;BME280;11297;42.686;23.374;2023-02-16T08:26:22;96233.78;;;13.76;36.39
22257;BME280;11297;42.686;23.374;2023-02-16T08:28:48;96246.66;;;13.86;36.02
22257;BME280;11297;42.686;23.374;2023-02-16T08:31:23;96228.19;;;14.49;35.31
22257;BME280;11297;42.686;23.374;2023-02-16T08:33:49;96235.75;;;14.24;35.44
22257;BME280;11297;42.686;23.374;2023-02-16T08:36:20;96237.88;;;13.95;36.12
22257;BME280;11297;42.686;23.374;2023-02-16T08:38:48;96241.00;;;14.24;35.62
22257;BME280;11297;42.686;23.374;2023-02-16T08:41:16;96229.66;;;14.29;35.40
22257;BME280;11297;42.686;23.374;2023-02-16T08:43:42;96235.00;;;14.37;35.36
22257;BME280;11297;42.686;23.374;2023-02-16T08:46:07;96232.72;;;14.57;34.96
22257;BME280;11297;42.686;23.374;2023-02-16T08:48:33;96228.38;;;14.88;34.23
22257;BME280;11297;42.686;23.374;2023-02-16T08:51:00;96227.66;;;14.96;34.63
22257;BME280;11297;42.686;23.374;2023-02-16T08:53:27;96221.31;;;15.10;34.41
22257;BME280;11297;42.686;23.374;2023-02-16T08:55:57;96226.50;;;15.45;33.70
22257;BME280;11297;42.686;23.374;2023-02-16T08:58:24;96228.88;;;15.33;33.90
22257;BME280;11297;42.686;23.374;2023-02-16T09:00:49;96226.63;;;15.62;33.53
22257;BME280;11297;42.686;23.374;2023-02-16T09:03:17;96222.66;;;16.12;33.37
22257;BME280;11297;42.686;23.374;2023-02-16T09:05:44;96231.09;;;16.30;32.78
22257;BME280;11297;42.686;23.374;2023-02-16T09:08:10;96219.56;;;16.48;32.48
22257;BME280;11297;42.686;23.374;2023-02-16T09:10:35;96223.06;;;16.35;32.13
22257;BME280;11297;42.686;23.374;2023-02-16T09:13:01;96216.31;;;16.43;32.62
22257;BME280;11297;42.686;23.374;2023-02-16T09:15:27;96214.44;;;16.43;32.74
22257;BME280;11297;42.686;23.374;2023-02-16T09:17:53;96198.41;;;16.36;32.64
22257;BME280;11297;42.686;23.374;2023-02-16T09:20:18;96205.06;;;16.59;32.61
22257;BME280;11297;42.686;23.374;2023-02-16T09:22:44;96213.72;;;16.51;32.74
22257;BME280;11297;42.686;23.374;2023-02-16T09:25:11;96212.03;;;16.72;32.30
22257;BME280;11297;42.686;23.374;2023-02-16T09:27:37;96208.78;;;16.83;31.86
22257;BME280;11297;42.686;23.374;2023-02-16T09:30:02;96196.88;;;17.03;31.74
22257;BME280;11297;42.686;23.374;2023-02-16T09:32:30;96211.84;;;16.69;31.96
22257;BME280;11297;42.686;23.374;2023-02-16T09:34:56;96192.75;;;17.02;31.33
22257;BME280;11297;42.686;23.374;2023-02-16T09:37:21;96194.25;;;17.45;31.28
22257;BME280;11297;42.686;23.374;2023-02-16T09:39:47;96194.75;;;17.22;31.05
22257;BME280;11297;42.686;23.374;2023-02-16T09:45:00;96189.47;;;16.63;32.35
22257;BME280;11297;42.686;23.374;2023-02-16T09:47:29;96175.59;;;16.87;31.88
22257;BME280;11297;42.686;23.374;2023-02-16T09:49:57;96179.88;;;16.41;32.27
22257;BME280;11297;42.686;23.374;2023-02-16T09:52:39;96203.25;;;17.89;67.29
22257;BME280;11297;42.686;23.374;2023-02-16T09:55:14;96173.47;;;19.48;53.24
22257;BME280;11297;42.686;23.374;2023-02-16T09:58:06;96173.28;;;19.00;45.34
22257;BME280;11297;42.686;23.374;2023-02-16T10:03:46;96159.25;;;20.56;38.31
22257;BME280;11297;42.686;23.374;2023-02-16T10:06:21;96158.16;;;20.45;35.50
22257;BME280;11297;42.686;23.374;2023-02-16T10:08:55;96162.41;;;19.54;32.51
22257;BME280;11297;42.686;23.374;2023-02-16T10:20:18;96147.06;;;20.39;35.30
22257;BME280;11297;42.686;23.374;2023-02-16T10:22:54;96130.22;;;21.37;36.42
22257;BME280;11297;42.686;23.374;2023-02-16T10:25:36;96134.47;;;22.49;36.33
22257;BME280;11297;42.686;23.374;2023-02-16T10:36:32;96120.28;;;21.61;28.04
22257;BME280;11297;42.686;23.374;2023-02-16T10:39:45;96119.97;;;19.91;31.70
22257;BME280;11297;42.686;23.374;2023-02-16T10:42:17;96120.78;;;19.83;31.86
22257;BME280;11297;42.686;23.374;2023-02-16T10:47:49;96110.72;;;20.60;33.52
22257;BME280;11297;42.686;23.374;2023-02-16T10:50:35;96120.41;;;20.56;28.60
22257;BME280;11297;42.686;23.374;2023-02-16T10:53:12;96110.38;;;21.01;30.52
22257;BME280;11297;42.686;23.374;2023-02-16T10:55:38;96106.16;;;21.27;32.85
22257;BME280;11297;42.686;23.374;2023-02-16T10:58:03;96091.78;;;20.58;30.32
22257;BME280;11297;42.686;23.374;2023-02-16T11:00:55;96097.16;;;19.39;30.09
22257;BME280;11297;42.686;23.374;2023-02-16T11:03:28;96088.91;;;19.41;35.03
22257;BME280;11297;42.686;23.374;2023-02-16T11:05:54;96089.94;;;19.60;31.84
22257;BME280;11297;42.686;23.374;2023-02-16T11:08:20;96085.50;;;19.64;29.19
22257;BME280;11297;42.686;23.374;2023-02-16T11:10:50;96084.09;;;19.66;31.78
22257;BME280;11297;42.686;23.374;2023-02-16T11:13:31;96080.13;;;20.20;30.20
22257;BME280;11297;42.686;23.374;2023-02-16T11:16:19;96054.34;;;19.54;29.63
22257;BME280;11297;42.686;23.374;2023-02-16T11:18:48;96077.63;;;19.88;35.56
22257;BME280;11297;42.686;23.374;2023-02-16T11:21:20;96067.88;;;20.39;32.78
22257;BME280;11297;42.686;23.374;2023-02-16T11:23:57;96078.38;;;20.90;36.70
22257;BME280;11297;42.686;23.374;2023-02-16T11:26:25;96064.88;;;21.38;31.65
22257;BME280;11297;42.686;23.374;2023-02-16T11:29:18;96067.13;;;21.51;32.29
22257;BME280;11297;42.686;23.374;2023-02-16T11:31:44;96063.69;;;21.20;28.16
22257;BME280;11297;42.686;23.374;2023-02-16T11:34:13;96053.38;;;21.46;30.78
22257;BME280;11297;42.686;23.374;2023-02-16T11:36:43;96047.88;;;21.08;28.67
22257;BME280;11297;42.686;23.374;2023-02-16T11:39:39;96029.22;;;21.16;29.75
22257;BME280;11297;42.686;23.374;2023-02-16T11:44:56;96042.19;;;21.21;27.80
22257;BME280;11297;42.686;23.374;2023-02-16T11:47:27;96042.78;;;21.15;31.32
22257;BME280;11297;42.686;23.374;2023-02-16T11:52:44;96048.31;;;20.67;33.23
22257;BME280;11297;42.686;23.374;2023-02-16T11:55:29;96048.50;;;20.74;37.93
22257;BME280;11297;42.686;23.374;2023-02-16T11:58:24;96044.00;;;20.36;35.57
22257;BME280;11297;42.686;23.374;2023-02-16T12:14:58;96014.56;;;20.22;33.17
22257;BME280;11297;42.686;23.374;2023-02-16T12:21:09;95998.16;;;20.28;30.15
22257;BME280;11297;42.686;23.374;2023-02-16T12:26:55;95986.78;;;19.38;28.34
22257;BME280;11297;42.686;23.374;2023-02-16T12:33:04;95981.38;;;19.34;35.35
22257;BME280;11297;42.686;23.374;2023-02-16T12:35:44;95981.63;;;20.04;34.70
22257;BME280;11297;42.686;23.374;2023-02-16T12:43:53;95977.50;;;20.30;33.42
22257;BME280;11297;42.686;23.374;2023-02-16T12:46:32;95976.38;;;20.31;33.70
22257;BME280;11297;42.686;23.374;2023-02-16T12:52:01;95961.78;;;20.22;28.66
22257;BME280;11297;42.686;23.374;2023-02-16T12:54:42;95964.09;;;20.23;34.84
22257;BME280;11297;42.686;23.374;2023-02-16T12:57:12;95951.56;;;19.93;28.78
22257;BME280;11297;42.686;23.374;2023-02-16T13:02:35;95946.34;;;20.09;34.11
22257;BME280;11297;42.686;23.374;2023-02-16T13:05:20;95951.78;;;20.43;33.75
22257;BME280;11297;42.686;23.374;2023-02-16T13:07:50;95939.81;;;20.61;33.14
22257;BME280;11297;42.686;23.374;2023-02-16T13:10:25;95942.44;;;20.45;33.11
22257;BME280;11297;42.686;23.374;2023-02-16T13:12:59;95941.84;;;20.52;29.04
22257;BME280;11297;42.686;23.374;2023-02-16T13:15:47;95927.53;;;20.10;26.73
22257;BME280;11297;42.686;23.374;2023-02-16T13:20:48;95927.38;;;19.28;27.01
22257;BME280;11297;42.686;23.374;2023-02-16T13:23:35;95922.19;;;18.84;27.43
22257;BME280;11297;42.686;23.374;2023-02-16T13:37:21;95922.38;;;16.85;30.09
22257;BME280;11297;42.686;23.374;2023-02-16T13:44:50;95915.31;;;16.15;30.89
22257;BME280;11297;42.686;23.374;2023-02-16T13:47:25;95912.41;;;15.91;31.25
22257;BME280;11297;42.686;23.374;2023-02-16T13:49:56;95910.13;;;15.73;31.79
22257;BME280;11297;42.686;23.374;2023-02-16T13:52:35;95912.59;;;15.61;31.88
22257;BME280;11297;42.686;23.374;2023-02-16T13:55:06;95912.41;;;15.49;31.93
22257;BME280;11297;42.686;23.374;2023-02-16T14:03:36;95908.84;;;15.28;32.49
22257;BME280;11297;42.686;23.374;2023-02-16T14:06:36;95913.16;;;15.24;32.23
22257;BME280;11297;42.686;23.374;2023-02-16T14:19:38;95909.47;;;15.59;31.92
22257;BME280;11297;42.686;23.374;2023-02-16T14:22:09;95910.56;;;15.58;32.16
22257;BME280;11297;42.686;23.374;2023-02-16T14:24:37;95895.78;;;15.53;32.17
22257;BME280;11297;42.686;23.374;2023-02-16T14:27:09;95903.63;;;15.53;32.28
22257;BME280;11297;42.686;23.374;2023-02-16T14:29:37;95894.69;;;15.46;32.20
22257;BME280;11297;42.686;23.374;2023-02-16T14:35:06;95890.38;;;15.33;32.18
22257;BME280;11297;42.686;23.374;2023-02-16T14:37:37;95895.47;;;15.30;32.33
22257;BME280;11297;42.686;23.374;2023-02-16T14:40:17;95899.59;;;15.30;32.17
22257;BME280;11297;42.686;23.374;2023-02-16T14:42:48;95896.69;;;15.32;31.98
22257;BME280;11297;42.686;23.374;2023-02-16T14:59:04;95877.53;;;14.98;32.75
22257;BME280;11297;42.686;23.374;2023-02-16T15:01:41;95881.34;;;14.92;32.88
22257;BME280;11297;42.686;23.374;2023-02-16T15:04:09;95888.59;;;14.95;32.83
22257;BME280;11297;42.686;23.374;2023-02-16T15:06:43;95893.34;;;14.84;33.25
22257;BME280;11297;42.686;23.374;2023-02-16T15:09:19;95887.19;;;14.89;32.85
22257;BME280;11297;42.686;23.374;2023-02-16T15:14:36;95877.34;;;14.86;32.92
22257;BME280;11297;42.686;23.374;2023-02-16T15:17:05;95878.06;;;14.78;33.16
22257;BME280;11297;42.686;23.374;2023-02-16T15:19:32;95882.19;;;14.71;33.05
22257;BME280;11297;42.686;23.374;2023-02-16T15:22:20;95878.78;;;14.62;33.67
22257;BME280;11297;42.686;23.374;2023-02-16T15:24:56;95879.50;;;14.45;34.00
22257;BME280;11297;42.686;23.374;2023-02-16T15:27:22;95879.38;;;14.20;34.32
22257;BME280;11297;42.686;23.374;2023-02-16T15:30:07;95884.72;;;13.93;34.99
22257;BME280;11297;42.686;23.374;2023-02-16T15:32:33;95885.28;;;13.82;35.10
22257;BME280;11297;42.686;23.374;2023-02-16T15:35:09;95884.66;;;13.63;35.47
22257;BME280;11297;42.686;23.374;2023-02-16T15:37:35;95888.88;;;13.51;35.79
22257;BME280;11297;42.686;23.374;2023-02-16T15:40:13;95882.22;;;13.45;35.90
22257;BME280;11297;42.686;23.374;2023-02-16T15:42:42;95882.56;;;13.30;36.22
22257;BME280;11297;42.686;23.374;2023-02-16T15:45:30;95880.47;;;13.19;36.44
22257;BME280;11297;42.686;23.374;2023-02-16T15:48:32;95890.06;;;12.96;37.39